Time;durP1;ratioP1;P1;durP2;ratioP2;P2;SDS_P1;SDS_P2;PMS_P1;PMS_P2;Temp;Humidity;BMP_temperature;BMP_pressure;BME280_temperature;BME280_humidity;BME280_pressure;Samples;Min_cycle;Max_cycle;Signal;HPM_P1;HPM_P2
2023/06/23 00:00:28;;;;;;;16.13;9.35;;;;;;;27.56;43.68;102043.94;5053825;28;20028;-65
2023/06/23 00:02:56;;;;;;;16.05;9.30;;;;;;;26.87;45.32;102038.31;5075843;28;20099;-66
2023/06/23 00:05:22;;;;;;;16.60;9.73;;;;;;;27.43;44.39;102040.28;5053232;28;20021;-66
2023/06/23 00:07:47;;;;;;;14.32;9.60;;;;;;;27.34;44.21;102035.44;5053116;28;20511;-66
2023/06/23 00:10:14;;;;;;;13.82;10.00;;;;;;;27.30;43.95;102031.25;5052945;28;20472;-66
2023/06/23 00:12:42;;;;;;;20.25;10.40;;;;;;;27.00;44.47;102021.47;5070299;28;20033;-67
2023/06/23 00:15:14;;;;;;;18.38;11.05;;;;;;;26.62;45.92;102027.28;5068714;28;20032;-66
2023/06/23 00:17:41;;;;;;;16.77;10.05;;;;;;;26.60;45.64;102019.31;5051833;28;20067;-66
2023/06/23 00:20:10;;;;;;;17.60;10.32;;;;;;;26.86;45.16;102009.75;5053085;28;20177;-66
2023/06/23 00:22:36;;;;;;;18.10;10.00;;;;;;;27.00;45.04;102016.09;5070148;28;20036;-66
2023/06/23 00:25:02;;;;;;;20.23;11.43;;;;;;;26.32;46.14;102020.94;5071450;28;20396;-67
2023/06/23 00:27:28;;;;;;;21.70;11.35;;;;;;;26.22;46.25;102019.75;5077313;28;20032;-67
2023/06/23 00:29:54;;;;;;;18.80;11.85;;;;;;;26.72;45.34;102025.78;5086079;28;20031;-67
2023/06/23 00:32:19;;;;;;;18.60;11.10;;;;;;;27.06;45.06;102021.06;5077206;28;20105;-67
2023/06/23 00:34:45;;;;;;;15.50;10.63;;;;;;;26.69;45.52;102023.25;5072055;28;20412;-67
2023/06/23 00:37:10;;;;;;;18.35;11.93;;;;;;;26.65;45.35;102027.09;5052536;28;20042;-67
2023/06/23 00:39:36;;;;;;;19.77;10.70;;;;;;;27.30;44.19;102034.81;5052690;28;20038;-66
2023/06/23 00:42:06;;;;;;;14.98;10.85;;;;;;;27.18;44.57;102036.41;5052518;28;20037;-66
2023/06/23 00:44:33;;;;;;;20.05;11.15;;;;;;;27.15;44.36;102041.09;5055102;28;20403;-67
2023/06/23 00:47:01;;;;;;;20.20;12.13;;;;;;;26.95;44.78;102045.00;5071495;28;20027;-67
2023/06/23 00:49:26;;;;;;;19.58;12.15;;;;;;;26.75;45.20;102055.13;5091310;28;20024;-67
2023/06/23 00:51:53;;;;;;;20.92;12.10;;;;;;;27.21;44.72;102054.16;5070634;28;20036;-67
2023/06/23 00:54:18;;;;;;;21.55;13.20;;;;;;;27.07;44.58;102060.38;5059064;28;20051;-67
2023/06/23 00:56:44;;;;;;;22.50;13.57;;;;;;;27.52;43.83;102066.56;5051757;28;20053;-67
2023/06/23 00:59:09;;;;;;;21.02;12.93;;;;;;;27.86;43.27;102069.81;5069992;28;20032;-67
2023/06/23 01:01:35;;;;;;;25.00;14.88;;;;;;;27.12;44.39;102068.13;5054901;28;20077;-67
2023/06/23 01:04:01;;;;;;;22.45;14.52;;;;;;;27.21;44.56;102064.88;5070415;28;20054;-67
2023/06/23 01:06:37;;;;;;;25.25;14.18;;;;;;;26.22;46.89;102063.47;5051629;28;20408;-68
2023/06/23 01:09:42;;;;;;;26.73;15.30;;;;;;;26.24;46.99;102074.09;5068880;28;20075;-67
2023/06/23 01:12:17;;;;;;;23.20;14.68;;;;;;;26.60;46.48;102070.25;5065162;28;20441;-66
2023/06/23 01:14:42;;;;;;;28.33;15.00;;;;;;;27.29;44.46;102069.78;5056456;28;20074;-67
2023/06/23 01:17:27;;;;;;;27.20;14.57;;;;;;;26.00;47.77;102079.88;5051584;28;20262;-67
2023/06/23 01:20:12;;;;;;;22.42;14.88;;;;;;;26.01;48.09;102078.06;5050623;28;20028;-67
2023/06/23 01:22:49;;;;;;;24.05;15.18;;;;;;;27.28;45.29;102068.91;5051357;28;20389;-67
2023/06/23 01:25:46;;;;;;;37.63;17.23;;;;;;;27.43;44.87;102085.94;5070934;28;20036;-67
2023/06/23 01:28:15;;;;;;;28.75;16.73;;;;;;;27.15;45.30;102079.53;5032454;28;20032;-66
2023/06/23 01:30:43;;;;;;;34.25;18.33;;;;;;;27.03;45.90;102089.19;5077858;28;20488;-67
2023/06/23 01:33:17;;;;;;;32.58;19.48;;;;;;;26.97;45.98;102094.94;5087056;28;20039;-67
2023/06/23 01:35:46;;;;;;;32.13;17.42;;;;;;;26.88;46.18;102088.28;5069682;28;20399;-67
2023/06/23 01:38:27;;;;;;;37.83;20.17;;;;;;;26.88;46.15;102090.97;5052232;28;20040;-67
2023/06/23 01:40:57;;;;;;;37.42;19.00;;;;;;;27.34;45.75;102084.66;5069755;28;20025;-67
2023/06/23 01:43:29;;;;;;;38.95;20.98;;;;;;;27.31;45.03;102092.00;5051532;28;20017;-67
2023/06/23 01:46:09;;;;;;;37.47;20.25;;;;;;;28.05;43.43;102095.50;5051409;28;20054;-67
2023/06/23 01:48:39;;;;;;;37.63;20.00;;;;;;;27.83;44.24;102112.94;5051378;28;20571;-67
2023/06/23 01:51:06;;;;;;;39.25;21.85;;;;;;;27.95;43.63;102105.09;5051656;28;20035;-67
2023/06/23 01:53:32;;;;;;;39.72;22.92;;;;;;;27.38;44.66;102101.44;5051758;28;20029;-67
2023/06/23 01:56:01;;;;;;;42.75;22.60;;;;;;;27.62;44.25;102120.53;5068361;28;20051;-67
2023/06/23 01:58:28;;;;;;;42.75;22.30;;;;;;;27.50;44.85;102121.31;5057748;28;20024;-67
2023/06/23 02:00:56;;;;;;;40.45;21.90;;;;;;;27.43;45.09;102120.81;5050603;28;20024;-67
2023/06/23 02:03:22;;;;;;;40.20;22.63;;;;;;;27.61;44.56;102131.38;5075309;28;20093;-67
2023/06/23 02:05:50;;;;;;;42.75;23.95;;;;;;;27.52;44.75;102135.50;5071188;28;20084;-67
2023/06/23 02:08:16;;;;;;;45.17;24.02;;;;;;;27.49;45.06;102147.31;5056603;28;20035;-67
2023/06/23 02:10:42;;;;;;;39.70;21.65;;;;;;;27.30;45.06;102135.91;5050491;28;20032;-67
2023/06/23 02:13:11;;;;;;;41.80;23.27;;;;;;;27.43;45.39;102135.09;5051405;28;20366;-67
2023/06/23 02:15:39;;;;;;;36.03;20.67;;;;;;;27.15;45.96;102143.94;5068067;28;20070;-67
2023/06/23 02:18:05;;;;;;;39.72;20.02;;;;;;;27.28;45.78;102145.88;5058775;28;20028;-67
2023/06/23 02:20:32;;;;;;;42.97;21.08;;;;;;;27.63;45.08;102148.25;5058877;28;20020;-67
2023/06/23 02:22:59;;;;;;;36.28;20.75;;;;;;;26.81;47.41;102162.03;5068086;28;20106;-67
2023/06/23 02:25:25;;;;;;;36.65;20.20;;;;;;;27.01;46.32;102155.50;5051446;28;20020;-67
2023/06/23 02:27:52;;;;;;;35.95;20.42;;;;;;;27.02;46.64;102148.31;5071511;28;20043;-67
2023/06/23 02:30:18;;;;;;;41.30;20.55;;;;;;;26.75;47.52;102167.75;5088552;28;20480;-67
2023/06/23 02:32:47;;;;;;;36.38;20.27;;;;;;;27.01;47.51;102150.13;5074194;28;20082;-67
2023/06/23 02:35:13;;;;;;;40.58;21.08;;;;;;;26.74;48.00;102160.66;5051387;28;20028;-67
2023/06/23 02:37:43;;;;;;;35.22;19.02;;;;;;;26.40;48.91;102159.84;5069216;28;20499;-67
2023/06/23 02:40:16;;;;;;;40.53;22.42;;;;;;;26.52;48.60;102161.84;5069216;28;20052;-67
2023/06/23 02:42:59;;;;;;;38.78;20.98;;;;;;;27.32;46.58;102167.06;5051102;28;20028;-67
2023/06/23 02:45:29;;;;;;;39.42;20.13;;;;;;;27.11;46.82;102157.63;5054289;28;20115;-67
2023/06/23 02:47:56;;;;;;;37.75;19.67;;;;;;;26.51;48.34;102164.63;5073373;28;20555;-67
2023/06/23 02:50:31;;;;;;;39.88;20.65;;;;;;;27.02;47.07;102175.13;5072012;28;20042;-67
2023/06/23 02:53:04;;;;;;;41.53;21.50;;;;;;;27.12;46.73;102170.97;5071617;28;20075;-67
2023/06/23 02:55:30;;;;;;;;;;;;;;;27.29;46.24;102169.09;5076826;28;20573;-67
2023/06/23 02:58:00;;;;;;;43.05;20.73;;;;;;;27.56;45.23;102170.13;5072745;28;19912;-67
2023/06/23 03:00:28;;;;;;;48.63;22.88;;;;;;;27.87;44.95;102168.22;5071239;28;20028;-67
2023/06/23 03:02:58;;;;;;;42.75;22.48;;;;;;;28.06;44.08;102172.47;5072500;28;20089;-67
2023/06/23 03:05:26;;;;;;;41.22;21.75;;;;;;;28.07;43.34;102182.28;5072164;28;20069;-67
2023/06/23 03:07:52;;;;;;;41.22;22.65;;;;;;;27.65;45.25;102183.94;5053688;28;20024;-68
2023/06/23 03:10:18;;;;;;;38.97;22.52;;;;;;;27.21;45.74;102186.50;5053982;28;20028;-67
2023/06/23 03:12:45;;;;;;;42.05;23.50;;;;;;;27.42;45.59;102184.41;5071510;28;20059;-67
2023/06/23 03:15:11;;;;;;;37.90;21.10;;;;;;;27.10;46.45;102188.97;5063838;28;20496;-67
2023/06/23 03:17:40;;;;;;;44.08;23.42;;;;;;;27.45;45.14;102187.84;5074092;28;20381;-67
2023/06/23 03:20:24;;;;;;;44.70;22.23;;;;;;;27.79;44.72;102186.63;5091201;28;20027;-68
2023/06/23 03:22:54;;;;;;;45.08;21.95;;;;;;;27.03;46.04;102192.97;5069611;28;20024;-67
2023/06/23 03:25:26;;;;;;;41.83;23.00;;;;;;;26.77;46.74;102189.97;5072691;28;20036;-67
2023/06/23 03:27:53;;;;;;;40.92;22.25;;;;;;;27.42;45.20;102188.88;5091694;28;20024;-67
2023/06/23 03:30:30;;;;;;;44.00;21.58;;;;;;;27.40;45.54;102196.19;5071618;28;20150;-67
2023/06/23 03:33:00;;;;;;;48.58;24.90;;;;;;;27.06;45.95;102195.47;5053149;28;20033;-67
2023/06/23 03:35:31;;;;;;;43.97;22.55;;;;;;;27.11;46.22;102201.44;5072081;28;20021;-67
2023/06/23 03:37:59;;;;;;;44.67;22.75;;;;;;;27.37;45.26;102207.09;5071310;28;20033;-68
2023/06/23 03:40:28;;;;;;;41.95;22.05;;;;;;;26.96;46.00;102205.00;5069943;28;20201;-67
2023/06/23 03:42:58;;;;;;;38.53;21.42;;;;;;;27.52;44.76;102213.34;5060318;28;20031;-67
2023/06/23 03:45:27;;;;;;;42.00;22.77;;;;;;;27.49;44.88;102217.09;5071692;28;20028;-67
2023/06/23 03:48:00;;;;;;;47.17;23.08;;;;;;;26.99;46.34;102221.78;5051824;28;20513;-67
2023/06/23 03:50:30;;;;;;;47.95;23.30;;;;;;;27.61;44.35;102214.63;5053991;28;20025;-67
2023/06/23 03:52:58;;;;;;;45.25;22.38;;;;;;;27.19;45.46;102217.94;5070709;28;20032;-67
2023/06/23 03:55:26;;;;;;;39.10;22.08;;;;;;;27.33;44.52;102224.31;5068944;28;20129;-67
2023/06/23 03:57:53;;;;;;;40.35;21.17;;;;;;;27.31;45.28;102213.66;5053454;28;20068;-67
2023/06/23 04:00:21;;;;;;;36.92;20.73;;;;;;;27.16;45.35;102215.44;5053504;28;20257;-67
2023/06/23 04:02:49;;;;;;;38.67;21.00;;;;;;;26.55;47.46;102217.09;5052914;28;20077;-67
2023/06/23 04:05:16;;;;;;;41.80;22.02;;;;;;;26.18;49.11;102222.66;5053363;28;20048;-67
2023/06/23 04:07:44;;;;;;;36.53;20.70;;;;;;;26.70;47.43;102224.31;5053142;28;20484;-67
2023/06/23 04:10:12;;;;;;;43.88;21.27;;;;;;;27.25;46.04;102224.75;5052856;28;20123;-67
2023/06/23 04:12:39;;;;;;;36.00;19.98;;;;;;;26.20;49.24;102222.59;5057069;28;20028;-69
2023/06/23 04:15:07;;;;;;;35.85;19.60;;;;;;;26.13;48.43;102224.75;5067416;28;20169;-67
2023/06/23 04:17:36;;;;;;;36.70;19.73;;;;;;;26.55;48.51;102241.22;5060469;28;20507;-67
2023/06/23 04:20:03;;;;;;;35.45;19.52;;;;;;;26.66;47.81;102237.97;5055933;28;20549;-67
2023/06/23 04:22:30;;;;;;;36.47;20.10;;;;;;;27.02;47.33;102239.50;5076725;28;20090;-67
2023/06/23 04:24:57;;;;;;;35.28;20.10;;;;;;;27.19;47.25;102239.41;5052162;28;20036;-67
2023/06/23 04:27:25;;;;;;;38.35;20.52;;;;;;;27.72;46.00;102233.63;5070801;28;20105;-67
2023/06/23 04:29:53;;;;;;;39.67;20.45;;;;;;;27.16;47.28;102238.72;5051774;28;20024;-67
2023/06/23 04:32:21;;;;;;;36.95;21.00;;;;;;;26.74;49.00;102247.31;5078393;28;20118;-67
2023/06/23 04:34:47;;;;;;;34.80;19.60;;;;;;;26.67;49.35;102255.78;5062135;28;20012;-68
2023/06/23 04:37:26;;;;;;;38.95;20.65;;;;;;;26.91;48.91;102254.44;5070803;28;20476;-67
2023/06/23 04:39:59;;;;;;;36.45;19.33;;;;;;;27.65;47.41;102254.63;5072572;28;20041;-67
2023/06/23 04:42:38;;;;;;;36.33;20.17;;;;;;;26.52;49.66;102258.34;5068216;28;20032;-67
2023/06/23 04:45:06;;;;;;;33.42;18.42;;;;;;;27.77;46.94;102259.25;5074745;28;20105;-67
2023/06/23 04:47:35;;;;;;;35.72;18.60;;;;;;;27.80;46.49;102263.56;5080695;28;20024;-67
2023/06/23 04:50:06;;;;;;;35.38;20.10;;;;;;;27.64;47.10;102262.78;5070774;28;20032;-67
2023/06/23 04:52:40;;;;;;;36.10;19.10;;;;;;;27.61;48.14;102262.97;5089379;28;20024;-67
2023/06/23 04:55:08;;;;;;;33.85;19.02;;;;;;;27.40;48.04;102268.66;5080929;28;20484;-67
2023/06/23 04:57:38;;;;;;;34.55;19.73;;;;;;;27.55;47.15;102270.41;5090208;28;20024;-67
2023/06/23 05:00:07;;;;;;;34.47;19.75;;;;;;;28.48;45.46;102269.28;5069217;28;20090;-67
2023/06/23 05:02:35;;;;;;;38.75;18.63;;;;;;;27.16;48.54;102269.09;5051572;28;20024;-68
2023/06/23 05:05:01;;;;;;;33.85;20.23;;;;;;;27.52;48.19;102267.94;5069605;28;20492;-67
2023/06/23 05:07:28;;;;;;;34.83;18.70;;;;;;;28.52;45.80;102262.75;5052446;28;20371;-67
2023/06/23 05:09:56;;;;;;;42.33;18.60;;;;;;;28.88;45.41;102264.03;5052051;28;20020;-68
2023/06/23 05:12:24;;;;;;;36.83;19.10;;;;;;;29.16;44.17;102271.16;5052298;28;20031;-67
2023/06/23 05:14:53;;;;;;;35.67;19.77;;;;;;;29.45;43.62;102277.28;5051049;28;20052;-67
2023/06/23 05:17:21;;;;;;;33.45;19.67;;;;;;;29.10;44.55;102275.13;5052022;28;20178;-67
2023/06/23 05:19:48;;;;;;;36.88;19.95;;;;;;;29.18;44.19;102280.00;5050539;28;20020;-67
2023/06/23 05:22:17;;;;;;;33.47;18.38;;;;;;;28.69;45.49;102289.47;5052214;28;20539;-68
2023/06/23 05:24:46;;;;;;;30.60;19.00;;;;;;;29.25;43.71;102284.03;5073066;28;20359;-67
2023/06/23 05:27:12;;;;;;;32.53;19.02;;;;;;;29.92;42.60;102290.34;5051510;28;20032;-67
2023/06/23 05:29:41;;;;;;;34.38;18.70;;;;;;;29.55;43.77;102303.63;5051752;28;20487;-68
2023/06/23 05:32:10;;;;;;;34.00;17.80;;;;;;;29.28;43.60;102299.13;5051244;28;20496;-68
2023/06/23 05:34:36;;;;;;;32.15;18.42;;;;;;;29.41;43.91;102318.00;5049271;28;20136;-67
2023/06/23 05:37:04;;;;;;;30.73;17.65;;;;;;;30.12;42.60;102299.72;5052095;28;20036;-67
2023/06/23 05:39:31;;;;;;;28.88;17.05;;;;;;;29.32;43.87;102307.84;5052475;28;20032;-67
2023/06/23 05:41:57;;;;;;;32.10;17.23;;;;;;;29.66;43.31;102310.97;5071510;28;20562;-67
2023/06/23 05:44:22;;;;;;;30.98;18.10;;;;;;;30.16;42.28;102309.31;5062761;28;20028;-68
2023/06/23 05:46:53;;;;;;;30.17;17.02;;;;;;;29.34;43.72;102319.41;5066768;28;20050;-68
2023/06/23 05:49:21;;;;;;;28.25;15.55;;;;;;;28.29;45.46;102317.97;5090094;28;20028;-68
2023/06/23 05:51:55;;;;;;;29.85;14.95;;;;;;;28.85;44.71;102318.94;5070857;28;20020;-68
2023/06/23 05:54:23;;;;;;;22.75;13.43;;;;;;;28.63;45.76;102313.16;5064121;28;20049;-67
2023/06/23 05:56:53;;;;;;;23.85;13.82;;;;;;;28.55;44.97;102325.28;5062318;28;20389;-67
2023/06/23 05:59:32;;;;;;;25.63;14.48;;;;;;;29.19;44.10;102318.53;5050664;28;20498;-67
2023/06/23 06:01:59;;;;;;;21.67;12.43;;;;;;;28.56;44.80;102316.25;5068455;28;20036;-68
2023/06/23 06:04:29;;;;;;;21.52;12.98;;;;;;;28.02;45.66;102326.78;5052063;28;20032;-68
2023/06/23 06:06:57;;;;;;;24.17;12.57;;;;;;;29.32;44.19;102332.09;5075608;28;20232;-67
2023/06/23 06:09:26;;;;;;;22.02;12.18;;;;;;;29.17;44.08;102332.13;5050269;28;20021;-68
2023/06/23 06:11:54;;;;;;;23.08;12.30;;;;;;;29.92;42.65;102338.84;5062296;28;20500;-68
2023/06/23 06:14:21;;;;;;;17.90;11.15;;;;;;;30.03;41.82;102346.19;5070873;28;20040;-67
2023/06/23 06:16:48;;;;;;;20.08;11.02;;;;;;;30.39;41.55;102341.88;5082094;28;20028;-66
2023/06/23 06:19:16;;;;;;;17.70;10.90;;;;;;;30.70;40.29;102339.72;5074585;28;20068;-67
2023/06/23 06:21:45;;;;;;;15.60;9.27;;;;;;;32.64;37.22;102335.78;5063219;28;20051;-67
2023/06/23 06:24:13;;;;;;;12.88;8.77;;;;;;;33.37;35.28;102337.97;5065032;28;20027;-67
2023/06/23 06:26:41;;;;;;;18.15;9.05;;;;;;;32.05;37.25;102341.38;5063647;28;20067;-67
2023/06/23 06:29:08;;;;;;;16.55;8.35;;;;;;;32.28;37.01;102337.75;5058716;28;20081;-67
2023/06/23 06:31:36;;;;;;;13.23;8.25;;;;;;;33.53;34.97;102348.41;5087784;28;20039;-68
2023/06/23 06:34:03;;;;;;;12.48;7.65;;;;;;;34.30;33.73;102347.22;5064765;28;20464;-67
2023/06/23 06:36:31;;;;;;;13.02;8.02;;;;;;;34.41;33.43;102349.00;5071932;28;20110;-68
2023/06/23 06:38:58;;;;;;;12.02;7.57;;;;;;;35.10;32.00;102354.66;5069123;28;20115;-68
2023/06/23 06:41:24;;;;;;;10.25;6.60;;;;;;;34.21;32.74;102356.16;5068427;28;20058;-67
2023/06/23 06:43:50;;;;;;;9.18;6.70;;;;;;;34.48;32.74;102355.59;5075303;28;20036;-67
2023/06/23 06:46:17;;;;;;;12.52;6.53;;;;;;;34.46;32.69;102356.75;5077238;28;20096;-67
2023/06/23 06:48:46;;;;;;;9.75;6.70;;;;;;;34.47;32.54;102364.75;5075791;28;20536;-67
2023/06/23 06:51:15;;;;;;;9.73;6.18;;;;;;;34.32;32.17;102375.09;5080277;28;20024;-67
2023/06/23 06:53:41;;;;;;;10.82;6.55;;;;;;;33.69;33.71;102379.59;5089739;28;20399;-68
2023/06/23 06:56:10;;;;;;;10.02;6.32;;;;;;;33.99;33.33;102370.72;5070235;28;21429;-66
2023/06/23 06:58:36;;;;;;;11.18;6.50;;;;;;;35.37;31.08;102366.75;5057394;28;20100;-67
2023/06/23 07:01:03;;;;;;;10.32;5.85;;;;;;;35.40;31.32;102361.00;5072256;28;20028;-67
2023/06/23 07:03:34;;;;;;;9.48;5.90;;;;;;;36.21;30.01;102366.06;5092875;28;20015;-67
2023/06/23 07:05:59;;;;;;;9.05;6.15;;;;;;;37.32;28.78;102360.66;5063362;28;20035;-67
2023/06/23 07:08:26;;;;;;;8.55;5.55;;;;;;;36.43;30.02;102374.91;5064775;28;20079;-67
2023/06/23 07:10:51;;;;;;;10.18;5.47;;;;;;;37.91;28.22;102373.78;5061357;28;20028;-66
2023/06/23 07:13:17;;;;;;;7.63;5.47;;;;;;;37.92;29.07;102375.50;5081704;28;20526;-68
2023/06/23 07:15:43;;;;;;;6.30;4.78;;;;;;;37.75;28.75;102379.91;5074329;28;20036;-66
2023/06/23 07:18:08;;;;;;;8.77;5.82;;;;;;;37.05;28.35;102379.75;5055293;28;20802;-67
2023/06/23 07:20:33;;;;;;;9.57;5.93;;;;;;;36.77;28.67;102379.75;5064057;28;20032;-67
2023/06/23 07:22:59;;;;;;;6.72;5.40;;;;;;;36.22;29.25;102383.22;5056723;28;20025;-65
2023/06/23 07:25:24;;;;;;;7.85;4.93;;;;;;;38.45;27.72;102389.13;5064421;28;20028;-65
2023/06/23 07:27:50;;;;;;;9.75;5.95;;;;;;;36.43;29.06;102391.22;5095256;28;20468;-65
2023/06/23 07:30:16;;;;;;;6.50;4.95;;;;;;;37.92;27.70;102389.13;5070850;28;20077;-65
2023/06/23 07:32:44;;;;;;;7.50;4.78;;;;;;;38.63;26.84;102392.59;5063679;28;20060;-65
2023/06/23 07:35:09;;;;;;;7.20;5.05;;;;;;;38.58;26.03;102395.00;5053752;28;20036;-65
2023/06/23 07:37:35;;;;;;;5.72;4.53;;;;;;;39.20;26.95;102393.88;5053634;28;20078;-65
2023/06/23 07:40:00;;;;;;;7.50;4.65;;;;;;;37.00;27.29;102400.16;5057035;28;20475;-65
2023/06/23 07:42:27;;;;;;;5.15;4.40;;;;;;;38.67;26.19;102396.72;5092444;28;20101;-66
2023/06/23 07:44:52;;;;;;;5.40;3.63;;;;;;;38.07;25.85;102402.19;5046934;28;20020;-66
2023/06/23 07:47:18;;;;;;;5.72;4.20;;;;;;;38.72;25.65;102406.34;5057032;28;20030;-65
2023/06/23 07:49:43;;;;;;;8.38;4.53;;;;;;;38.13;27.02;102402.41;5085185;28;20024;-68
2023/06/23 07:52:09;;;;;;;6.10;4.00;;;;;;;40.07;25.40;102408.97;5076582;28;20112;-65
2023/06/23 07:54:36;;;;;;;6.53;4.43;;;;;;;40.29;24.25;102410.97;5060149;28;20053;-65
2023/06/23 07:57:02;;;;;;;5.95;3.97;;;;;;;39.18;25.19;102406.84;5065093;28;20052;-65
2023/06/23 07:59:27;;;;;;;5.70;4.65;;;;;;;38.57;25.13;102414.25;5058060;28;20377;-66
2023/06/23 08:01:53;;;;;;;8.43;4.05;;;;;;;37.67;26.48;102413.47;5052428;28;20563;-66
2023/06/23 08:04:20;;;;;;;5.28;4.07;;;;;;;38.54;25.54;102412.72;5080235;28;20118;-66
2023/06/23 08:06:46;;;;;;;4.70;4.03;;;;;;;39.10;25.22;102402.19;5098932;28;20119;-66
2023/06/23 08:09:11;;;;;;;4.65;3.75;;;;;;;38.31;24.81;102416.00;5052189;28;20111;-66
2023/06/23 08:11:37;;;;;;;3.85;3.30;;;;;;;39.60;23.86;102405.91;5052901;28;20470;-66
2023/06/23 08:14:02;;;;;;;6.25;3.90;;;;;;;41.19;22.75;102407.00;5070779;28;20024;-66
2023/06/23 08:16:28;;;;;;;4.93;3.67;;;;;;;39.94;23.50;102414.94;5069482;28;20043;-67
2023/06/23 08:18:53;;;;;;;5.15;3.75;;;;;;;38.33;24.83;102416.72;5052075;28;20499;-66
2023/06/23 08:21:19;;;;;;;5.60;4.28;;;;;;;38.94;24.84;102410.34;5070042;28;20512;-66
2023/06/23 08:23:45;;;;;;;6.35;3.83;;;;;;;39.51;24.92;102407.72;5051950;28;20032;-66
2023/06/23 08:26:11;;;;;;;5.60;3.58;;;;;;;38.14;25.82;102414.16;5087724;28;20129;-65
2023/06/23 08:28:36;;;;;;;5.35;3.92;;;;;;;37.52;25.50;102417.72;5061134;28;20124;-66
2023/06/23 08:31:02;;;;;;;4.20;3.38;;;;;;;39.98;23.30;102419.91;5059445;28;20606;-66
2023/06/23 08:33:27;;;;;;;4.57;3.55;;;;;;;39.09;24.00;102426.94;5057080;28;20028;-66
2023/06/23 08:35:53;;;;;;;4.82;3.67;;;;;;;39.44;24.02;102423.13;5070173;28;20476;-66
2023/06/23 08:38:18;;;;;;;5.03;3.65;;;;;;;39.03;24.36;102425.75;5052410;28;20284;-66
2023/06/23 08:40:45;;;;;;;4.47;3.10;;;;;;;39.72;23.38;102430.19;5052511;28;20035;-66
2023/06/23 08:43:12;;;;;;;2.97;2.38;;;;;;;38.79;24.26;102437.47;5072477;28;20027;-66
2023/06/23 08:45:43;;;;;;;3.72;2.83;;;;;;;39.11;22.81;102435.84;5057465;28;20024;-66
2023/06/23 08:48:09;;;;;;;4.05;3.08;;;;;;;37.55;24.16;102431.06;5063929;28;20028;-65
2023/06/23 08:50:35;;;;;;;3.85;2.47;;;;;;;38.18;24.88;102431.94;5080525;28;20039;-65
2023/06/23 08:53:03;;;;;;;4.70;2.72;;;;;;;39.61;23.31;102429.50;5053947;28;20476;-66
2023/06/23 08:55:28;;;;;;;4.95;3.05;;;;;;;40.68;21.91;102448.53;5064065;28;20044;-66
2023/06/23 08:58:00;;;;;;;5.00;3.75;;;;;;;40.93;22.16;102445.72;5069903;28;20396;-65
2023/06/23 09:00:26;;;;;;;4.73;3.37;;;;;;;41.97;21.88;102439.00;5066356;28;20399;-67
2023/06/23 09:02:51;;;;;;;3.83;3.08;;;;;;;40.74;21.36;102444.22;5069818;28;20274;-66
2023/06/23 09:05:17;;;;;;;4.90;2.83;;;;;;;39.91;22.80;102440.75;5082269;28;20101;-66
2023/06/23 09:07:44;;;;;;;2.42;2.17;;;;;;;39.57;22.13;102450.00;5052997;28;20029;-66
2023/06/23 09:10:10;;;;;;;5.68;2.13;;;;;;;40.21;21.82;102446.56;5051055;28;20039;-66
2023/06/23 09:12:42;;;;;;;3.38;3.00;;;;;;;40.75;21.03;102447.81;5068514;28;20036;-66
2023/06/23 09:15:08;;;;;;;3.35;2.35;;;;;;;41.13;20.17;102450.75;5061241;28;20418;-67
2023/06/23 09:17:39;;;;;;;2.17;1.75;;;;;;;40.67;19.67;102452.31;5070954;28;20031;-66
2023/06/23 09:20:05;;;;;;;4.28;1.88;;;;;;;40.23;20.20;102460.97;5064716;28;20041;-67
2023/06/23 09:22:32;;;;;;;2.53;2.20;;;;;;;40.95;19.49;102454.59;5051174;28;20031;-66
2023/06/23 09:24:57;;;;;;;3.08;2.22;;;;;;;41.01;20.20;102453.91;5074349;28;20483;-67
2023/06/23 09:27:43;;;;;;;3.13;2.45;;;;;;;42.15;19.12;102455.94;5074965;28;20035;-66
2023/06/23 09:30:08;;;;;;;5.47;2.97;;;;;;;40.30;20.89;102451.00;5057229;28;20478;-66
2023/06/23 09:32:37;;;;;;;3.90;2.25;;;;;;;40.93;20.01;102451.19;5071001;28;20111;-66
2023/06/23 09:35:03;;;;;;;3.08;2.50;;;;;;;42.22;19.45;102464.34;5061230;28;20023;-66
2023/06/23 09:37:36;;;;;;;1.92;1.70;;;;;;;40.17;19.19;102456.16;5070892;28;20078;-66
2023/06/23 09:40:04;;;;;;;2.28;1.70;;;;;;;40.87;18.20;102460.94;5091298;28;20080;-67
2023/06/23 09:42:32;;;;;;;3.15;1.83;;;;;;;41.00;17.79;102457.66;5089896;28;20038;-66
2023/06/23 09:44:57;;;;;;;2.00;1.60;;;;;;;39.82;18.68;102458.22;5075133;28;20056;-67
2023/06/23 09:47:23;;;;;;;2.10;1.77;;;;;;;40.76;19.33;102461.34;5049880;28;20074;-67
2023/06/23 09:49:49;;;;;;;2.15;1.63;;;;;;;39.73;20.73;102459.25;5070142;28;20490;-68
2023/06/23 09:52:22;;;;;;;2.97;2.20;;;;;;;39.62;20.79;102469.50;5070426;28;20463;-75
2023/06/23 09:54:48;;;;;;;2.10;1.77;;;;;;;39.40;20.02;102467.38;5079282;28;20488;-75
2023/06/23 09:57:16;;;;;;;2.20;1.85;;;;;;;40.63;18.43;102467.38;5073701;28;20070;-75
2023/06/23 09:59:44;;;;;;;1.65;1.48;;;;;;;39.08;19.15;102478.03;5055038;28;20503;-75
2023/06/23 10:02:20;;;;;;;4.43;1.92;;;;;;;37.22;20.78;102474.31;5057144;28;20036;-75
2023/06/23 10:04:48;;;;;;;2.72;1.90;;;;;;;39.32;19.60;102466.34;5087499;28;20062;-75
2023/06/23 10:07:20;;;;;;;2.50;1.80;;;;;;;39.36;19.29;102470.47;5051093;28;20063;-74
2023/06/23 10:10:07;;;;;;;2.03;1.70;;;;;;;39.47;20.23;102471.16;5060700;28;20032;-67
2023/06/23 10:12:33;;;;;;;2.78;1.92;;;;;;;39.82;19.18;102470.03;5056605;28;20029;-67
2023/06/23 10:14:59;;;;;;;1.50;1.33;;;;;;;39.37;18.19;102468.56;5052210;28;20624;-67
2023/06/23 10:17:25;;;;;;;1.73;1.63;;;;;;;39.49;18.86;102463.66;5068383;28;20029;-67
2023/06/23 10:19:52;;;;;;;2.33;1.85;;;;;;;39.90;18.71;102460.09;5070227;28;20098;-67
2023/06/23 10:22:19;;;;;;;2.70;1.50;;;;;;;40.76;17.47;102465.97;5064519;28;20468;-67
2023/06/23 10:24:47;;;;;;;1.70;1.60;;;;;;;39.46;17.55;102455.75;5069138;28;20032;-67
2023/06/23 10:27:21;;;;;;;1.73;1.58;;;;;;;39.92;18.54;102458.91;5089167;28;20028;-67
2023/06/23 10:29:54;;;;;;;2.80;1.85;;;;;;;40.46;18.75;102454.72;5080188;28;20066;-67
2023/06/23 10:32:22;;;;;;;2.42;1.85;;;;;;;41.52;18.05;102456.16;5063011;28;20036;-67
2023/06/23 10:34:50;;;;;;;2.70;1.83;;;;;;;40.55;17.95;102459.19;5070470;28;20114;-67
2023/06/23 10:37:21;;;;;;;2.97;2.03;;;;;;;40.65;18.07;102462.56;5064814;28;20138;-67
2023/06/23 10:39:50;;;;;;;1.58;1.45;;;;;;;40.52;17.55;102462.28;5051569;28;20499;-67
2023/06/23 10:42:16;;;;;;;3.13;1.50;;;;;;;41.01;17.48;102470.34;5082775;28;20031;-67
2023/06/23 10:44:42;;;;;;;1.88;1.60;;;;;;;40.52;18.22;102470.50;5088723;28;20024;-68
2023/06/23 10:47:08;;;;;;;1.80;1.70;;;;;;;40.48;17.85;102475.44;5070809;28;20058;-68
2023/06/23 10:49:35;;;;;;;1.65;1.52;;;;;;;39.99;17.48;102476.34;5063236;28;20476;-68
2023/06/23 10:52:02;;;;;;;1.90;1.60;;;;;;;41.11;18.23;102477.47;5069802;28;20030;-68
2023/06/23 10:54:29;;;;;;;1.55;1.45;;;;;;;40.75;18.17;102481.53;5082277;28;20024;-67
2023/06/23 10:56:55;;;;;;;1.48;1.30;;;;;;;38.90;18.54;102491.81;5062267;28;20681;-68
2023/06/23 10:59:28;;;;;;;1.63;1.42;;;;;;;40.92;17.81;102487.81;5071089;28;20040;-67
2023/06/23 11:02:00;;;;;;;1.58;1.38;;;;;;;42.15;16.77;102479.81;5079189;28;20115;-68
2023/06/23 11:04:33;;;;;;;2.17;1.80;;;;;;;41.61;17.15;102484.38;5071552;28;20062;-69
2023/06/23 11:07:03;;;;;;;2.58;1.70;;;;;;;43.45;16.65;102494.09;5066208;28;20088;-68
2023/06/23 11:09:47;;;;;;;2.90;1.52;;;;;;;41.39;16.31;102496.22;5072383;28;20032;-68
2023/06/23 11:12:44;;;;;;;1.90;1.70;;;;;;;40.72;17.70;102498.34;5083495;28;20032;-68
2023/06/23 11:15:16;;;;;;;2.42;1.98;;;;;;;40.45;17.59;102483.13;5058225;28;20159;-68
2023/06/23 11:17:45;;;;;;;;;;;;;;;42.00;16.87;102485.28;5063836;28;20039;-68
2023/06/23 11:20:20;;;;;;;2.28;1.90;;;;;;;42.22;17.25;102483.56;5059803;28;20332;-68
2023/06/23 11:23:12;;;;;;;1.73;1.50;;;;;;;39.74;17.72;102482.84;5064286;28;20111;-67